Capitol Logistics 404


KBNA
Nashville International Airport
Nashville, Tennessee, US
KMSY
Louis Armstrong New Orleans International Airport
New Orleans, Louisiana, US

Activity Log

Date Flight Route Aircraft Duration
04/12/2020 CPX404 LBY MEI IGB HRTUN CHSNE2 B752 1h 51m
12/21/2019 CPX404 LBY MEI IGB HRTUN CHSNE2 B752 1h 25m
09/19/2019 CPX404 N0464F340 DRURY3 HAGIE IGB MEI RYTHM4 B752 1h 11m
06/11/2019 CPX404 KBNA DRURY3 JALAR MEI RYTHM4 KMSY B752 1h 30m
02/14/2019 CPX404 LBY MEI IGB HRTUN CHSNE2 B752 1h 23m

Route Details

Aircraft Information
Primary: Boeing 757-200SF
Backup: Boeing 737-800BCF
Route Data
Distance: 410nm
Sched. Duration: 1h 30m
Avg. Duration: 1h 28m (-2m)
Times Flown: 5
Recm'd Route: LBY MEI IGB HRTUN CHSNE2
Planned Altitude: 36,000ft
Origin Wx: KBNA 051602Z 00000KT 10SM SCT023 SCT030 27/19 A2998 RMK AO2 T02720189
Dest. Wx: KMSY 051553Z 09005KT 10SM FEW020 FEW250 31/21 A2998 RMK AO2 SLP155 CB DSNT SE T03110211
Notes:

Financial History
Total Freight: 263,289lbs
Average Load: 52,658lbs/flt
Fuel Used: 49,306lbs
Avg. Fuel Used: 9,861lbs/flt
Fuel Expense: $42,403
Avg. Fuel Expense: $8,481
Avg. Fuel Cost: $0.86/lbs
Total Gross Income: $353,886
Pilot Pay: $935
Total Expenses: $38,480
Total Revenue: $271,569
Average Revenue: $70,777.15